Time;durP1;ratioP1;P1;durP2;ratioP2;P2;SDS_P1;SDS_P2;PMS_P1;PMS_P2;Temp;Humidity;BMP_temperature;BMP_pressure;BME280_temperature;BME280_humidity;BME280_pressure;Samples;Min_cycle;Max_cycle;Signal;HPM_P1;HPM_P2
2022/03/12 00:00:34;;;;;;;26.63;16.03;;;3.50;98.30;;;;;;4994235;28;20186;-31
2022/03/12 00:03:01;;;;;;;23.50;13.97;;;3.60;98.40;;;;;;4992615;28;20270;-31
2022/03/12 00:05:29;;;;;;;29.93;16.67;;;3.70;98.50;;;;;;4993063;28;20184;-31
2022/03/12 00:07:55;;;;;;;21.70;13.47;;;3.80;98.40;;;;;;4994073;28;20294;-31
2022/03/12 00:10:22;;;;;;;21.90;13.93;;;3.90;98.30;;;;;;4976652;28;20230;-30
2022/03/12 00:12:50;;;;;;;24.37;15.10;;;3.80;98.30;;;;;;4993192;28;20196;-30
2022/03/12 00:15:16;;;;;;;21.70;14.40;;;3.90;97.80;;;;;;4992908;28;20199;-32
2022/03/12 00:17:45;;;;;;;25.97;15.57;;;3.80;97.70;;;;;;4992794;28;20183;-31
2022/03/12 00:20:14;;;;;;;22.87;15.07;;;3.80;97.90;;;;;;4993133;28;20212;-31
2022/03/12 00:22:44;;;;;;;24.33;15.50;;;3.90;98.00;;;;;;4992798;28;20184;-30
2022/03/12 00:25:11;;;;;;;24.47;14.50;;;4.00;98.00;;;;;;4976163;28;20184;-31
2022/03/12 00:27:39;;;;;;;25.93;16.20;;;4.00;97.80;;;;;;4992324;28;20188;-30
2022/03/12 00:30:07;;;;;;;26.37;16.23;;;4.10;97.90;;;;;;4993620;28;20164;-31
2022/03/12 00:32:36;;;;;;;27.53;16.23;;;4.10;97.90;;;;;;4976710;28;20184;-31
2022/03/12 00:35:04;;;;;;;24.37;15.43;;;4.10;98.10;;;;;;4992309;28;20248;-30
2022/03/12 00:37:30;;;;;;;27.53;15.47;;;4.10;98.00;;;;;;4992085;28;20203;-30
2022/03/12 00:39:56;;;;;;;27.30;16.53;;;4.00;98.00;;;;;;4991994;28;20232;-31
2022/03/12 00:42:22;;;;;;;25.17;15.77;;;3.90;98.30;;;;;;4976137;28;20204;-30
2022/03/12 00:44:48;;;;;;;27.17;14.57;;;3.80;98.20;;;;;;4992247;28;20266;-31
2022/03/12 00:47:14;;;;;;;25.97;15.40;;;3.80;98.50;;;;;;4993401;28;20267;-31
2022/03/12 00:49:40;;;;;;;28.57;17.20;;;3.90;98.40;;;;;;4992190;28;20200;-30
2022/03/12 00:52:07;;;;;;;26.13;16.00;;;3.80;98.30;;;;;;4993971;28;20176;-30
2022/03/12 00:54:33;;;;;;;25.40;15.30;;;3.70;98.50;;;;;;4993136;28;20184;-31
2022/03/12 00:56:59;;;;;;;21.53;14.77;;;3.60;98.60;;;;;;4992702;28;20180;-30
2022/03/12 00:59:25;;;;;;;26.47;14.57;;;3.60;98.70;;;;;;4991468;28;20222;-31
2022/03/12 01:01:50;;;;;;;25.23;14.77;;;3.60;98.80;;;;;;4976376;28;20191;-30
2022/03/12 01:04:16;;;;;;;26.70;15.47;;;3.70;98.70;;;;;;4992137;28;20207;-31
2022/03/12 01:06:43;;;;;;;26.03;15.07;;;3.80;98.80;;;;;;4976046;28;20201;-30
2022/03/12 01:09:11;;;;;;;23.17;14.90;;;3.90;98.70;;;;;;4992024;28;20225;-31
2022/03/12 01:11:38;;;;;;;23.33;15.13;;;3.90;98.70;;;;;;4976017;28;20198;-30
2022/03/12 01:14:06;;;;;;;24.93;14.97;;;4.00;98.80;;;;;;4975780;28;20235;-31
2022/03/12 01:16:36;;;;;;;24.17;15.20;;;4.00;98.90;;;;;;4975931;28;20303;-30
2022/03/12 01:19:01;;;;;;;24.97;15.40;;;4.00;98.80;;;;;;4975717;28;20299;-30
2022/03/12 01:21:28;;;;;;;26.10;15.30;;;3.90;98.70;;;;;;4991476;28;20271;-29
2022/03/12 01:23:54;;;;;;;27.57;15.90;;;3.90;98.80;;;;;;4991601;28;20215;-30
2022/03/12 01:26:22;;;;;;;24.93;15.13;;;3.80;98.70;;;;;;4975489;28;20182;-30
2022/03/12 01:28:49;;;;;;;23.07;14.50;;;3.80;98.90;;;;;;4975630;28;20196;-30
2022/03/12 01:31:16;;;;;;;27.50;16.33;;;3.70;98.90;;;;;;4975698;28;20685;-28
2022/03/12 01:33:42;;;;;;;29.40;16.10;;;3.50;99.00;;;;;;4975798;28;20187;-29
2022/03/12 01:36:08;;;;;;;25.90;15.23;;;3.40;99.40;;;;;;4992099;28;20187;-28
2022/03/12 01:38:56;;;;;;;26.13;15.30;;;3.30;99.60;;;;;;4975860;28;20229;-29
2022/03/12 01:41:25;;;;;;;23.63;15.20;;;3.20;99.90;;;;;;4975292;28;20203;-29
2022/03/12 01:43:53;;;;;;;23.37;14.93;;;3.20;99.80;;;;;;4991552;28;20211;-29
2022/03/12 01:46:39;;;;;;;26.37;15.70;;;3.10;99.90;;;;;;4991381;28;20211;-30
2022/03/12 01:49:19;;;;;;;23.20;14.77;;;2.90;99.90;;;;;;4990293;28;20199;-29
2022/03/12 01:51:48;;;;;;;23.03;14.87;;;3.00;99.90;;;;;;4991269;28;20186;-29
2022/03/12 01:54:24;;;;;;;27.33;16.33;;;3.00;99.90;;;;;;4990970;28;20198;-30
2022/03/12 01:56:51;;;;;;;24.93;15.03;;;3.10;99.90;;;;;;4974657;28;20275;-29
2022/03/12 01:59:18;;;;;;;25.33;15.00;;;3.20;99.90;;;;;;4974365;28;20249;-30
2022/03/12 02:01:46;;;;;;;28.43;16.00;;;3.30;99.90;;;;;;4990848;28;20182;-29
2022/03/12 02:04:13;;;;;;;24.40;14.80;;;3.30;99.90;;;;;;4974773;28;20203;-29
2022/03/12 02:06:42;;;;;;;26.03;15.70;;;3.30;99.90;;;;;;4990614;28;20567;-30
2022/03/12 02:09:14;;;;;;;20.90;13.67;;;3.20;99.90;;;;;;4974190;28;20447;-29
2022/03/12 02:11:40;;;;;;;21.37;14.13;;;3.10;99.90;;;;;;4990685;28;20190;-29
2022/03/12 02:14:15;;;;;;;25.50;14.93;;;3.10;99.90;;;;;;4974391;28;20195;-28
2022/03/12 02:16:49;;;;;;;24.57;15.07;;;3.10;99.90;;;;;;4974706;28;20218;-29
2022/03/12 02:19:15;;;;;;;23.97;14.70;;;3.10;99.90;;;;;;4974061;28;20578;-29
2022/03/12 02:21:49;;;;;;;24.63;15.23;;;3.20;99.90;;;;;;4990772;28;20188;-29
2022/03/12 02:24:17;;;;;;;29.13;17.67;;;3.20;99.90;;;;;;4991866;28;20661;-29
2022/03/12 02:26:44;;;;;;;32.87;17.13;;;3.30;99.90;;;;;;4974292;28;20312;-29
2022/03/12 02:29:19;;;;;;;25.63;16.10;;;3.40;99.90;;;;;;4990328;28;20203;-29
2022/03/12 02:31:56;;;;;;;22.20;14.33;;;3.40;99.90;;;;;;4974364;28;20179;-30
2022/03/12 02:34:23;;;;;;;25.37;14.97;;;3.40;99.90;;;;;;4990247;28;20180;-29
2022/03/12 02:36:52;;;;;;;26.00;14.73;;;3.40;99.90;;;;;;4974270;28;20246;-29
2022/03/12 02:39:20;;;;;;;23.93;14.37;;;3.50;99.90;;;;;;4990277;28;20208;-29
2022/03/12 02:41:47;;;;;;;22.90;13.93;;;3.50;99.90;;;;;;4990307;28;20184;-30
2022/03/12 02:44:22;;;;;;;22.30;14.93;;;3.50;99.90;;;;;;4973986;28;20546;-29
2022/03/12 02:47:11;;;;;;;21.57;14.43;;;3.50;99.90;;;;;;4990373;28;20179;-29
2022/03/12 02:49:40;;;;;;;22.90;14.10;;;3.50;99.90;;;;;;4989797;28;20196;-31
2022/03/12 02:52:06;;;;;;;20.70;13.90;;;3.50;99.90;;;;;;4990398;28;20180;-29
2022/03/12 02:54:32;;;;;;;24.50;14.87;;;3.50;99.90;;;;;;4990033;28;20727;-29
2022/03/12 02:57:01;;;;;;;21.70;14.60;;;3.40;99.90;;;;;;4990232;28;20279;-29
2022/03/12 02:59:28;;;;;;;24.03;14.80;;;3.30;99.90;;;;;;4991647;28;20210;-30
2022/03/12 03:01:56;;;;;;;24.70;15.00;;;3.20;99.90;;;;;;4994142;28;20184;-30
2022/03/12 03:04:22;;;;;;;25.27;15.07;;;3.20;99.90;;;;;;4995175;28;20210;-29
2022/03/12 03:06:48;;;;;;;25.70;15.40;;;3.10;99.90;;;;;;4993816;28;20211;-30
2022/03/12 03:09:14;;;;;;;24.83;15.33;;;3.10;99.90;;;;;;4993624;28;20255;-30
2022/03/12 03:11:40;;;;;;;24.67;15.03;;;3.00;99.90;;;;;;4993737;28;20191;-30
2022/03/12 03:14:11;;;;;;;29.77;16.13;;;2.90;99.90;;;;;;4993731;28;20183;-29
2022/03/12 03:16:38;;;;;;;24.47;15.10;;;2.80;99.90;;;;;;4993876;28;20184;-29
2022/03/12 03:19:04;;;;;;;24.33;15.17;;;2.70;99.90;;;;;;4994888;28;20209;-29
2022/03/12 03:21:34;;;;;;;25.40;14.80;;;2.70;99.90;;;;;;4993668;28;20320;-29
2022/03/12 03:24:00;;;;;;;28.13;15.80;;;2.70;99.90;;;;;;4993507;28;20680;-30
2022/03/12 03:26:38;;;;;;;23.10;15.47;;;2.60;99.90;;;;;;4993593;28;20186;-31
2022/03/12 03:29:05;;;;;;;26.03;15.43;;;2.60;99.90;;;;;;4977204;28;20380;-29
2022/03/12 03:31:32;;;;;;;28.00;15.87;;;2.60;99.90;;;;;;4993673;28;20186;-30
2022/03/12 03:33:58;;;;;;;23.33;14.77;;;2.70;99.90;;;;;;4993252;28;20191;-29
2022/03/12 03:36:24;;;;;;;26.90;15.50;;;2.80;99.90;;;;;;4993381;28;20184;-29
2022/03/12 03:38:50;;;;;;;22.53;14.83;;;2.80;99.90;;;;;;4993253;28;20660;-30
2022/03/12 03:41:16;;;;;;;22.20;14.83;;;2.80;99.90;;;;;;4993500;28;20209;-30
2022/03/12 03:43:48;;;;;;;24.33;14.13;;;2.90;99.90;;;;;;4993520;28;20200;-29
2022/03/12 03:46:19;;;;;;;25.53;15.13;;;2.90;99.90;;;;;;4993138;28;20183;-29
2022/03/12 03:48:47;;;;;;;25.57;15.57;;;2.90;99.90;;;;;;4976818;28;20206;-30
2022/03/12 03:51:13;;;;;;;25.73;15.13;;;2.90;99.90;;;;;;4993069;28;20199;-30
2022/03/12 03:53:39;;;;;;;23.97;14.70;;;2.90;99.90;;;;;;4993349;28;20203;-29
2022/03/12 03:56:05;;;;;;;25.27;15.43;;;2.90;99.90;;;;;;4993247;28;20176;-29
2022/03/12 03:58:32;;;;;;;26.10;15.70;;;2.80;99.90;;;;;;4994270;28;20578;-29
2022/03/12 04:01:00;;;;;;;23.77;14.57;;;2.80;99.90;;;;;;4976177;28;20294;-30
2022/03/12 04:03:37;;;;;;;21.63;13.93;;;2.70;99.90;;;;;;4992975;28;20329;-30
2022/03/12 04:06:04;;;;;;;21.63;13.57;;;2.70;99.90;;;;;;4976789;28;20184;-29
2022/03/12 04:08:32;;;;;;;24.23;14.07;;;2.70;99.90;;;;;;4992769;28;20250;-29
2022/03/12 04:11:01;;;;;;;22.70;14.13;;;2.70;99.90;;;;;;4992541;28;20202;-30
2022/03/12 04:13:27;;;;;;;24.37;14.23;;;2.70;99.90;;;;;;4992493;28;20639;-29
2022/03/12 04:15:53;;;;;;;26.30;14.27;;;2.70;99.90;;;;;;4992606;28;20183;-30
2022/03/12 04:18:21;;;;;;;25.37;14.33;;;2.70;99.90;;;;;;4992484;28;20200;-31
2022/03/12 04:20:48;;;;;;;24.47;15.83;;;2.70;99.90;;;;;;4992360;28;20240;-30
2022/03/12 04:23:20;;;;;;;24.37;13.73;;;2.80;99.90;;;;;;4993252;28;20204;-30
2022/03/12 04:25:51;;;;;;;24.27;14.73;;;2.70;99.90;;;;;;4992646;28;20179;-30
2022/03/12 04:28:21;;;;;;;21.73;14.27;;;2.60;99.90;;;;;;4992329;28;20200;-29
2022/03/12 04:30:48;;;;;;;22.70;15.10;;;2.40;99.90;;;;;;4992669;28;20220;-30
2022/03/12 04:33:15;;;;;;;22.87;14.80;;;2.30;99.90;;;;;;4992695;28;20202;-30
2022/03/12 04:35:42;;;;;;;24.50;15.03;;;2.20;99.90;;;;;;4992403;28;20192;-30
2022/03/12 04:38:13;;;;;;;26.23;15.10;;;2.10;99.90;;;;;;4992487;28;20198;-30
2022/03/12 04:40:40;;;;;;;24.30;14.90;;;2.10;99.90;;;;;;4991893;28;20200;-30
2022/03/12 04:43:09;;;;;;;26.60;15.07;;;2.10;99.90;;;;;;4992357;28;20284;-29
2022/03/12 04:45:36;;;;;;;28.07;15.53;;;2.10;99.90;;;;;;4992331;28;20222;-30
2022/03/12 04:48:02;;;;;;;25.00;16.60;;;2.10;99.90;;;;;;4992142;28;20202;-30
2022/03/12 04:50:28;;;;;;;26.17;15.10;;;2.20;99.90;;;;;;4991916;28;20182;-31
2022/03/12 04:52:58;;;;;;;25.67;14.83;;;2.30;99.90;;;;;;4992089;28;20271;-30
2022/03/12 04:55:27;;;;;;;26.20;15.40;;;2.40;99.90;;;;;;4991994;28;20238;-30
2022/03/12 04:57:53;;;;;;;23.20;14.53;;;2.40;99.90;;;;;;4975590;28;20184;-31
2022/03/12 05:00:27;;;;;;;24.47;15.07;;;2.50;99.90;;;;;;4975356;28;20283;-29
2022/03/12 05:03:01;;;;;;;23.83;15.27;;;2.60;99.90;;;;;;4975439;28;20182;-30
2022/03/12 05:05:27;;;;;;;24.67;15.80;;;2.60;99.90;;;;;;4992044;28;20194;-30
2022/03/12 05:07:59;;;;;;;23.10;14.30;;;2.70;99.90;;;;;;4991326;28;20172;-30
2022/03/12 05:10:27;;;;;;;28.97;16.63;;;2.80;99.90;;;;;;4991224;28;20197;-30
2022/03/12 05:12:58;;;;;;;26.37;16.07;;;2.90;99.90;;;;;;4991570;28;20203;-30
2022/03/12 05:15:24;;;;;;;24.57;15.60;;;3.00;99.90;;;;;;4992872;28;20238;-30
2022/03/12 05:17:51;;;;;;;22.27;14.30;;;3.00;99.90;;;;;;4991468;28;20176;-30
2022/03/12 05:20:21;;;;;;;25.23;15.40;;;3.10;99.90;;;;;;4991369;28;20179;-30
2022/03/12 05:22:48;;;;;;;22.93;14.23;;;3.00;99.90;;;;;;4991175;28;20175;-30
2022/03/12 05:25:15;;;;;;;26.83;15.30;;;2.90;99.90;;;;;;4990931;28;20176;-30
2022/03/12 05:27:41;;;;;;;24.50;15.33;;;2.70;99.90;;;;;;4991394;28;20226;-30
2022/03/12 05:30:08;;;;;;;24.70;14.70;;;2.70;99.90;;;;;;4990900;28;20179;-30
2022/03/12 05:32:33;;;;;;;26.10;14.87;;;2.70;99.90;;;;;;4991564;28;20183;-30
2022/03/12 05:35:00;;;;;;;23.17;14.63;;;2.80;99.90;;;;;;4992348;28;20183;-30
2022/03/12 05:37:26;;;;;;;27.37;15.77;;;2.80;99.90;;;;;;4991155;28;20262;-30
2022/03/12 05:39:53;;;;;;;25.90;15.33;;;2.90;99.90;;;;;;4990413;28;20226;-30
2022/03/12 05:42:22;;;;;;;27.13;15.10;;;2.70;99.90;;;;;;4991011;28;20202;-30
2022/03/12 05:44:56;;;;;;;23.50;14.10;;;2.70;99.90;;;;;;4990747;28;20302;-30
2022/03/12 05:47:23;;;;;;;22.83;14.50;;;2.70;99.90;;;;;;4976130;28;20175;-30
2022/03/12 05:49:49;;;;;;;28.13;15.27;;;2.70;99.90;;;;;;4974546;28;20207;-30
2022/03/12 05:52:16;;;;;;;27.10;15.80;;;2.80;99.90;;;;;;4990936;28;20241;-29
2022/03/12 05:54:44;;;;;;;26.63;15.27;;;2.80;99.90;;;;;;4990400;28;20237;-30
2022/03/12 05:57:10;;;;;;;24.33;15.63;;;2.80;99.90;;;;;;4990848;28;20194;-30
2022/03/12 05:59:35;;;;;;;27.83;17.37;;;2.80;99.90;;;;;;4990377;28;20213;-29
2022/03/12 06:02:01;;;;;;;30.53;18.43;;;2.80;99.90;;;;;;4990493;28;20184;-30
2022/03/12 06:04:27;;;;;;;33.90;18.67;;;2.80;99.90;;;;;;4990368;28;20222;-29
2022/03/12 06:06:54;;;;;;;26.80;17.30;;;2.80;99.90;;;;;;4990548;28;20190;-30
2022/03/12 06:09:20;;;;;;;27.37;16.77;;;2.90;99.90;;;;;;4990121;28;20223;-29
2022/03/12 06:11:46;;;;;;;24.43;14.97;;;3.00;99.90;;;;;;4990280;28;20188;-30
2022/03/12 06:14:16;;;;;;;23.73;14.97;;;2.90;99.90;;;;;;4974281;28;20655;-30
2022/03/12 06:16:48;;;;;;;24.03;14.63;;;2.90;99.90;;;;;;4990527;28;20262;-30
2022/03/12 06:19:19;;;;;;;26.17;16.57;;;2.90;99.90;;;;;;4990144;28;20608;-30
2022/03/12 06:21:45;;;;;;;27.30;15.87;;;2.90;99.90;;;;;;4990330;28;20558;-30
2022/03/12 06:24:12;;;;;;;48.23;27.20;;;3.00;99.90;;;;;;4990162;28;20238;-30
2022/03/12 06:26:39;;;;;;;42.17;24.53;;;3.00;99.90;;;;;;4974908;28;20187;-30
2022/03/12 06:29:10;;;;;;;33.70;20.73;;;3.10;99.90;;;;;;4990966;28;20238;-29
2022/03/12 06:31:36;;;;;;;27.67;16.30;;;3.10;99.90;;;;;;4987368;28;20262;-29
2022/03/12 06:34:03;;;;;;;26.20;16.17;;;3.10;99.90;;;;;;4978869;28;20266;-29
2022/03/12 06:36:30;;;;;;;21.60;13.77;;;3.10;99.90;;;;;;4971692;28;20185;-30
2022/03/12 06:38:57;;;;;;;25.27;15.67;;;3.00;99.90;;;;;;4962775;28;20206;-29
2022/03/12 06:41:23;;;;;;;26.97;16.20;;;3.00;99.90;;;;;;4961486;28;20187;-30
2022/03/12 06:43:50;;;;;;;24.23;15.63;;;2.90;99.90;;;;;;4964496;28;20226;-29
2022/03/12 06:46:16;;;;;;;25.57;15.50;;;2.90;99.90;;;;;;4975814;28;20184;-29
2022/03/12 06:48:43;;;;;;;28.53;15.90;;;3.00;99.90;;;;;;4981101;28;20207;-29
2022/03/12 06:51:13;;;;;;;23.40;14.93;;;3.00;99.90;;;;;;4983328;28;20194;-30
2022/03/12 06:53:40;;;;;;;25.57;16.30;;;3.10;99.90;;;;;;4978723;28;20191;-30
2022/03/12 06:56:09;;;;;;;25.37;15.90;;;3.10;99.90;;;;;;4963914;28;20194;-30
2022/03/12 06:58:37;;;;;;;27.47;15.90;;;3.00;99.90;;;;;;4982873;28;20195;-30
2022/03/12 07:01:03;;;;;;;25.80;16.13;;;3.10;99.90;;;;;;4993365;28;20184;-30
2022/03/12 07:03:29;;;;;;;25.63;14.90;;;3.20;99.90;;;;;;4976246;28;20204;-30
2022/03/12 07:05:55;;;;;;;24.40;14.70;;;3.40;99.90;;;;;;4974243;28;20180;-31
2022/03/12 07:08:22;;;;;;;23.70;14.80;;;3.50;99.90;;;;;;4974881;28;20206;-30
2022/03/12 07:10:49;;;;;;;25.90;15.23;;;3.70;99.90;;;;;;4989430;28;20218;-29
2022/03/12 07:13:16;;;;;;;26.00;16.27;;;3.80;99.90;;;;;;4989800;28;20198;-29
2022/03/12 07:15:42;;;;;;;26.63;15.27;;;3.90;99.90;;;;;;4989837;28;20215;-29
2022/03/12 07:18:08;;;;;;;26.03;16.67;;;4.00;99.90;;;;;;4990086;28;20214;-29
2022/03/12 07:20:34;;;;;;;24.00;15.47;;;4.10;99.90;;;;;;4989631;28;20192;-30
2022/03/12 07:23:00;;;;;;;22.27;16.10;;;4.20;99.90;;;;;;4989795;28;20186;-30
2022/03/12 07:25:28;;;;;;;25.10;16.80;;;4.30;99.90;;;;;;4989750;28;20180;-29
2022/03/12 07:27:54;;;;;;;22.20;15.33;;;4.40;99.90;;;;;;4989693;28;20176;-29
2022/03/12 07:30:21;;;;;;;26.27;17.00;;;4.40;99.90;;;;;;4989426;28;20176;-29
2022/03/12 07:32:48;;;;;;;24.87;16.17;;;4.50;99.90;;;;;;4989962;28;20191;-30
2022/03/12 07:35:16;;;;;;;26.33;16.60;;;4.60;99.90;;;;;;4973542;28;20184;-30
2022/03/12 07:37:44;;;;;;;23.90;15.73;;;4.70;99.90;;;;;;4989459;28;20176;-30
2022/03/12 07:40:12;;;;;;;27.80;15.83;;;4.70;99.90;;;;;;4973065;28;20191;-30
2022/03/12 07:42:39;;;;;;;25.73;15.63;;;4.70;99.90;;;;;;4989825;28;20184;-31
2022/03/12 07:45:08;;;;;;;27.33;16.83;;;4.70;99.90;;;;;;4989688;28;20315;-30
2022/03/12 07:47:34;;;;;;;24.33;16.83;;;4.70;99.90;;;;;;4991594;28;20196;-31
2022/03/12 07:50:01;;;;;;;25.60;17.37;;;4.80;99.90;;;;;;4993490;28;20690;-31
2022/03/12 07:52:28;;;;;;;27.13;16.63;;;5.00;99.90;;;;;;4993152;28;20180;-31
2022/03/12 07:54:54;;;;;;;26.50;16.00;;;5.10;99.90;;;;;;4992607;28;20199;-31
2022/03/12 07:57:26;;;;;;;25.20;15.97;;;5.20;99.90;;;;;;4965719;28;20184;-30
2022/03/12 07:59:52;;;;;;;24.50;16.33;;;5.40;99.90;;;;;;4965370;28;20730;-31
2022/03/12 08:02:19;;;;;;;28.53;15.50;;;5.50;99.90;;;;;;4973363;28;20185;-31
2022/03/12 08:04:45;;;;;;;24.53;16.60;;;5.60;99.90;;;;;;4981868;28;20329;-30
2022/03/12 08:07:11;;;;;;;23.13;15.40;;;5.80;99.90;;;;;;4972318;28;20251;-31
2022/03/12 08:09:37;;;;;;;21.63;14.83;;;5.80;99.90;;;;;;4992274;28;20214;-31
2022/03/12 08:12:03;;;;;;;27.67;16.10;;;6.00;99.90;;;;;;4992627;28;20188;-30
2022/03/12 08:14:33;;;;;;;32.83;16.40;;;6.00;99.90;;;;;;4965271;28;20185;-31
2022/03/12 08:16:59;;;;;;;28.17;16.77;;;6.10;99.90;;;;;;4982180;28;20185;-31
2022/03/12 08:19:25;;;;;;;26.77;16.90;;;6.20;99.90;;;;;;4982955;28;20267;-30
2022/03/12 08:21:52;;;;;;;23.17;15.27;;;6.30;99.90;;;;;;4980852;28;20185;-30
2022/03/12 08:24:19;;;;;;;26.77;16.70;;;6.40;99.90;;;;;;4975488;28;20212;-31
2022/03/12 08:26:47;;;;;;;24.50;16.27;;;6.40;99.90;;;;;;4984173;28;20179;-31
2022/03/12 08:29:15;;;;;;;26.33;16.13;;;6.50;99.90;;;;;;4965559;28;20283;-31
2022/03/12 08:31:41;;;;;;;24.73;16.73;;;6.50;99.90;;;;;;4983938;28;20188;-31
2022/03/12 08:34:09;;;;;;;28.43;17.47;;;6.60;99.90;;;;;;4992140;28;20191;-30
2022/03/12 08:36:35;;;;;;;27.17;16.97;;;6.80;99.90;;;;;;4966527;28;20178;-30
2022/03/12 08:39:00;;;;;;;24.10;15.63;;;6.90;99.90;;;;;;4973707;28;20693;-31
2022/03/12 08:41:27;;;;;;;21.80;15.53;;;7.10;99.60;;;;;;4989433;28;20194;-30
2022/03/12 08:43:53;;;;;;;24.77;16.13;;;7.20;99.90;;;;;;4975711;28;20215;-30
2022/03/12 08:46:19;;;;;;;21.00;14.70;;;7.40;99.20;;;;;;4956617;28;20186;-30
2022/03/12 08:48:46;;;;;;;24.50;15.43;;;7.50;98.70;;;;;;4973547;28;20206;-30
2022/03/12 08:51:12;;;;;;;22.77;15.43;;;7.60;99.10;;;;;;4973950;28;20180;-30
2022/03/12 08:53:39;;;;;;;26.63;15.37;;;7.80;98.50;;;;;;4987839;28;20182;-31
2022/03/12 08:56:05;;;;;;;26.77;17.07;;;7.90;98.40;;;;;;4978218;28;20210;-31
2022/03/12 08:58:32;;;;;;;24.13;15.63;;;8.10;98.30;;;;;;4973865;28;20206;-30
2022/03/12 09:01:05;;;;;;;23.67;15.20;;;8.20;97.80;;;;;;4965421;28;20190;-31
2022/03/12 09:03:34;;;;;;;23.70;16.83;;;8.30;97.60;;;;;;4962386;28;20212;-31
2022/03/12 09:06:01;;;;;;;20.63;16.00;;;8.40;97.00;;;;;;4977614;28;20183;-30
2022/03/12 09:08:31;;;;;;;20.93;14.70;;;8.50;96.90;;;;;;4993654;28;20331;-31
2022/03/12 09:11:18;;;;;;;24.67;15.70;;;8.50;96.90;;;;;;4992905;28;20307;-31
2022/03/12 09:13:46;;;;;;;19.47;14.43;;;8.70;96.70;;;;;;4962736;28;20189;-31
2022/03/12 09:16:14;;;;;;;22.77;15.60;;;8.90;97.10;;;;;;4967616;28;20187;-31
2022/03/12 09:18:42;;;;;;;23.30;16.23;;;9.10;97.10;;;;;;4979659;28;20204;-31
2022/03/12 09:21:08;;;;;;;24.53;16.20;;;9.30;96.40;;;;;;4981535;28;20184;-30
2022/03/12 09:23:34;;;;;;;27.00;15.80;;;9.50;95.70;;;;;;4984380;28;20798;-30
2022/03/12 09:26:00;;;;;;;23.40;15.33;;;9.60;95.60;;;;;;4991301;28;20180;-31
2022/03/12 09:28:26;;;;;;;20.80;15.90;;;9.60;95.10;;;;;;4975129;28;20206;-30
2022/03/12 09:30:52;;;;;;;25.13;17.17;;;9.80;95.10;;;;;;4990861;28;20180;-30
2022/03/12 09:33:21;;;;;;;23.10;16.20;;;9.90;94.80;;;;;;4991238;28;20192;-30
2022/03/12 09:35:47;;;;;;;20.87;15.40;;;10.00;94.80;;;;;;4974961;28;20184;-30
2022/03/12 09:38:15;;;;;;;22.27;15.47;;;10.00;95.00;;;;;;4974772;28;20580;-30
2022/03/12 09:40:41;;;;;;;22.60;15.40;;;10.10;95.10;;;;;;4977983;28;20196;-31
2022/03/12 09:43:08;;;;;;;23.90;15.87;;;10.10;95.10;;;;;;4965958;28;20235;-32
2022/03/12 09:45:34;;;;;;;29.57;17.30;;;10.30;95.00;;;;;;4968427;28;20180;-30
2022/03/12 09:48:00;;;;;;;25.37;16.37;;;10.20;94.90;;;;;;4975313;28;20222;-31
2022/03/12 09:50:26;;;;;;;22.43;15.97;;;10.10;95.30;;;;;;4957485;28;20286;-30
2022/03/12 09:52:57;;;;;;;20.30;14.63;;;10.30;96.20;;;;;;4968935;28;20180;-30
2022/03/12 09:55:23;;;;;;;22.00;15.60;;;10.50;95.70;;;;;;4987499;28;20184;-30
2022/03/12 09:57:50;;;;;;;20.00;14.43;;;10.70;95.30;;;;;;4976346;28;20256;-31
2022/03/12 10:00:18;;;;;;;21.33;14.63;;;10.80;94.90;;;;;;4989615;28;20177;-31
2022/03/12 10:02:45;;;;;;;24.20;14.93;;;11.10;94.70;;;;;;4957736;28;20208;-31
2022/03/12 10:05:13;;;;;;;24.43;15.30;;;11.20;93.90;;;;;;4992978;28;20672;-31
2022/03/12 10:07:43;;;;;;;25.53;15.53;;;11.30;93.10;;;;;;4976476;28;20194;-31
2022/03/12 10:10:17;;;;;;;21.37;14.37;;;11.40;93.70;;;;;;4975861;28;20729;-31
2022/03/12 10:12:47;;;;;;;22.13;14.97;;;11.50;93.60;;;;;;4956862;28;20181;-31
2022/03/12 10:15:17;;;;;;;19.43;13.43;;;11.50;93.30;;;;;;4973411;28;20179;-31
2022/03/12 10:17:45;;;;;;;24.67;17.03;;;11.60;93.80;;;;;;4958542;28;20186;-31
2022/03/12 10:20:11;;;;;;;21.67;15.10;;;11.70;94.30;;;;;;4977903;28;20173;-30
2022/03/12 10:22:42;;;;;;;25.83;17.07;;;11.80;93.40;;;;;;4973123;28;20177;-30
2022/03/12 10:25:12;;;;;;;26.33;17.57;;;11.90;94.20;;;;;;4980743;28;20304;-30
2022/03/12 10:27:40;;;;;;;20.67;14.73;;;11.90;94.60;;;;;;4963618;28;20181;-30
2022/03/12 10:30:07;;;;;;;22.87;15.37;;;11.90;94.50;;;;;;4984486;28;20182;-33
2022/03/12 10:32:44;;;;;;;24.30;16.77;;;11.90;94.50;;;;;;4967110;28;20182;-30
2022/03/12 10:35:16;;;;;;;26.63;19.63;;;12.10;94.30;;;;;;4979091;28;20178;-31
2022/03/12 10:37:48;;;;;;;26.50;17.27;;;12.30;94.00;;;;;;4975129;28;20245;-30
2022/03/12 10:40:18;;;;;;;22.70;16.00;;;12.50;94.40;;;;;;4978924;28;20199;-30
2022/03/12 10:42:51;;;;;;;18.43;12.73;;;12.70;94.30;;;;;;4980554;28;20175;-30
2022/03/12 10:45:22;;;;;;;17.50;12.43;;;12.60;93.30;;;;;;4988281;28;20565;-31
2022/03/12 10:47:57;;;;;;;16.47;11.97;;;12.70;93.90;;;;;;4988553;28;20262;-30
2022/03/12 10:50:30;;;;;;;15.17;10.90;;;12.90;94.40;;;;;;4987455;28;20180;-31
2022/03/12 10:52:58;;;;;;;18.47;11.43;;;13.10;94.70;;;;;;4956248;28;20176;-30
2022/03/12 10:55:36;;;;;;;14.13;10.80;;;13.30;94.30;;;;;;4957557;28;20247;-31
2022/03/12 10:58:15;;;;;;;16.67;11.30;;;13.30;93.50;;;;;;4956221;28;20232;-30
2022/03/12 11:00:46;;;;;;;16.93;11.60;;;13.50;93.90;;;;;;4971584;28;20637;-31
2022/03/12 11:03:15;;;;;;;16.10;11.03;;;13.70;93.90;;;;;;4987589;28;20210;-31
2022/03/12 11:05:43;;;;;;;14.30;9.87;;;13.90;93.70;;;;;;4976597;28;20185;-30
2022/03/12 11:08:16;;;;;;;15.37;10.53;;;14.00;94.50;;;;;;4991634;28;20203;-29
2022/03/12 11:11:13;;;;;;;14.10;10.43;;;14.20;93.40;;;;;;4982229;28;20180;-29
2022/03/12 11:13:45;;;;;;;13.57;10.17;;;14.30;93.60;;;;;;4964165;28;20179;-29
2022/03/12 11:16:15;;;;;;;15.13;10.37;;;14.50;93.50;;;;;;4962324;28;20196;-30
2022/03/12 11:19:12;;;;;;;15.13;10.70;;;14.50;93.40;;;;;;4966458;28;20204;-31
2022/03/12 11:21:52;;;;;;;15.93;11.80;;;14.50;93.00;;;;;;4990131;28;20176;-30
2022/03/12 11:24:28;;;;;;;16.33;11.37;;;14.50;93.00;;;;;;4985301;28;20191;-30
2022/03/12 11:27:03;;;;;;;13.00;9.93;;;14.50;92.80;;;;;;4986851;28;20176;-30
2022/03/12 11:29:30;;;;;;;14.87;10.87;;;14.50;93.30;;;;;;4992410;28;20204;-30
2022/03/12 11:32:05;;;;;;;19.60;11.03;;;14.50;92.90;;;;;;4993226;28;20187;-31
2022/03/12 11:34:33;;;;;;;15.13;10.40;;;14.60;93.60;;;;;;4966935;28;20632;-30
2022/03/12 11:37:14;;;;;;;19.37;11.47;;;14.70;92.70;;;;;;4992968;28;20343;-32
2022/03/12 11:39:49;;;;;;;13.83;10.50;;;14.80;92.50;;;;;;4986355;28;20199;-31
2022/03/12 11:42:20;;;;;;;13.70;10.60;;;14.80;92.70;;;;;;4994286;28;20207;-31
2022/03/12 11:44:50;;;;;;;13.07;10.63;;;14.90;92.90;;;;;;4994357;28;20199;-31
2022/03/12 11:47:22;;;;;;;15.00;10.00;;;14.90;92.90;;;;;;4993823;28;20180;-30
2022/03/12 11:49:49;;;;;;;16.27;10.77;;;14.80;92.60;;;;;;4995116;28;20215;-29
2022/03/12 11:52:17;;;;;;;14.90;10.50;;;14.80;93.60;;;;;;4994863;28;20270;-30
2022/03/12 11:54:44;;;;;;;13.87;9.63;;;14.70;94.00;;;;;;4978947;28;20179;-31
2022/03/12 11:57:19;;;;;;;15.07;10.57;;;14.70;94.40;;;;;;4994956;28;20183;-30
2022/03/12 11:59:44;;;;;;;15.93;10.43;;;14.70;94.00;;;;;;4991862;28;20207;-29
2022/03/12 12:02:30;;;;;;;14.30;10.20;;;14.80;94.10;;;;;;4983787;28;20267;-30
2022/03/12 12:04:58;;;;;;;12.63;10.30;;;14.90;93.80;;;;;;4978840;28;20208;-31
2022/03/12 12:07:29;;;;;;;17.57;11.13;;;15.00;93.90;;;;;;4973373;28;20187;-31
2022/03/12 12:09:55;;;;;;;15.20;10.70;;;15.10;93.60;;;;;;4975963;28;20223;-31
2022/03/12 12:12:24;;;;;;;14.67;9.77;;;15.20;93.80;;;;;;4992575;28;20172;-31
2022/03/12 12:14:55;;;;;;;16.20;10.40;;;15.20;93.30;;;;;;4976249;28;20653;-31
2022/03/12 12:17:21;;;;;;;13.67;10.80;;;15.40;93.70;;;;;;4992686;28;20544;-30
2022/03/12 12:19:46;;;;;;;14.13;10.30;;;15.60;93.20;;;;;;4992316;28;20200;-32
2022/03/12 12:22:14;;;;;;;12.90;10.03;;;15.70;93.30;;;;;;4993901;28;20176;-31
2022/03/12 12:24:43;;;;;;;13.47;10.60;;;15.80;92.80;;;;;;4992237;28;20223;-31
2022/03/12 12:27:11;;;;;;;17.40;11.37;;;15.80;92.00;;;;;;4992519;28;20202;-29
2022/03/12 12:29:42;;;;;;;13.90;10.77;;;15.80;92.30;;;;;;4992202;28;20286;-30
2022/03/12 12:32:09;;;;;;;16.23;10.47;;;15.70;92.70;;;;;;4981790;28;20181;-31
2022/03/12 12:35:07;;;;;;;12.13;10.03;;;15.80;92.60;;;;;;4980116;28;20185;-31
2022/03/12 12:37:57;;;;;;;14.50;10.13;;;15.80;92.70;;;;;;4972613;28;20193;-31
2022/03/12 12:40:36;;;;;;;13.67;9.80;;;15.90;92.40;;;;;;4983159;28;20220;-30
2022/03/12 12:43:13;;;;;;;14.07;9.57;;;16.00;92.50;;;;;;4985271;28;20635;-32